createdAt,value
2022-08-22T00:02:58.482Z,22.75
2022-08-22T00:03:24.178Z,17.66
2022-08-22T00:04:21.301Z,17.69
2022-08-22T00:05:21.266Z,17.70
2022-08-22T00:06:21.076Z,17.67
2022-08-22T00:07:21.071Z,17.66
2022-08-22T00:08:23.587Z,17.63
2022-08-22T00:09:21.050Z,17.64
2022-08-22T00:10:25.477Z,17.64
2022-08-22T00:11:21.019Z,17.69
2022-08-22T00:12:21.022Z,17.69
2022-08-22T00:13:21.134Z,17.69
2022-08-22T00:14:21.045Z,17.73
2022-08-22T00:15:43.602Z,17.73
2022-08-22T00:16:20.977Z,17.71
2022-08-22T00:17:20.970Z,17.76
2022-08-22T00:18:20.956Z,17.74
2022-08-22T00:19:20.953Z,17.73
2022-08-22T00:20:20.968Z,17.71
2022-08-22T00:21:20.929Z,17.70
2022-08-22T00:22:21.288Z,17.70
2022-08-22T00:23:20.904Z,17.70
2022-08-22T00:24:20.914Z,17.69
2022-08-22T00:25:24.866Z,17.64
2022-08-22T00:26:20.915Z,17.66
2022-08-22T00:27:20.894Z,17.63
2022-08-22T00:28:20.843Z,17.59
2022-08-22T00:29:21.123Z,17.54
2022-08-22T00:30:20.833Z,17.53
2022-08-22T00:31:20.802Z,17.50
2022-08-22T00:32:20.836Z,17.46
2022-08-22T00:33:20.799Z,17.46
2022-08-22T00:34:20.793Z,17.41
2022-08-22T00:35:20.771Z,17.41
2022-08-22T00:36:21.166Z,17.40
2022-08-22T00:37:20.758Z,17.38
2022-08-22T00:38:20.775Z,17.38
2022-08-22T00:39:20.733Z,17.38
2022-08-22T00:40:20.778Z,17.40
2022-08-22T00:41:20.719Z,17.38
2022-08-22T00:42:29.404Z,17.40
2022-08-22T00:43:20.682Z,17.40
2022-08-22T00:44:20.710Z,17.43
2022-08-22T00:45:20.647Z,17.44
2022-08-22T00:46:20.661Z,17.44
2022-08-22T00:47:20.635Z,17.44
2022-08-22T00:48:20.684Z,17.46
2022-08-22T00:49:21.083Z,17.44
2022-08-22T00:50:20.696Z,17.43
2022-08-22T00:51:20.587Z,17.41
2022-08-22T00:52:20.584Z,17.43
2022-08-22T00:53:20.604Z,17.41
2022-08-22T00:54:20.566Z,17.41
2022-08-22T00:55:20.589Z,17.43
2022-08-22T00:56:20.987Z,17.43
2022-08-22T00:57:20.535Z,17.46
2022-08-22T00:58:20.526Z,17.46
2022-08-22T00:59:23.798Z,17.44
2022-08-22T01:00:20.521Z,17.44
2022-08-22T01:01:20.529Z,17.43
2022-08-22T01:02:20.514Z,17.41
2022-08-22T01:03:20.941Z,17.40
2022-08-22T01:04:20.462Z,17.41
2022-08-22T01:05:20.444Z,17.36
2022-08-22T01:06:20.436Z,17.33
2022-08-22T01:07:20.424Z,17.32
2022-08-22T01:08:20.468Z,17.28
2022-08-22T01:09:20.404Z,17.26
2022-08-22T01:10:20.696Z,17.20
2022-08-22T01:11:20.381Z,17.18
2022-08-22T01:12:20.372Z,17.14
2022-08-22T01:13:20.353Z,17.08
2022-08-22T01:14:20.378Z,17.06
2022-08-22T01:15:20.353Z,17.04
2022-08-22T01:16:20.336Z,17.00
2022-08-22T01:17:20.728Z,16.99
2022-08-22T01:18:20.314Z,16.95
2022-08-22T01:19:20.301Z,16.95
2022-08-22T01:20:20.314Z,16.93
2022-08-22T01:21:20.747Z,16.90
2022-08-22T01:22:20.292Z,16.90
2022-08-22T01:23:20.280Z,16.86
2022-08-22T01:24:20.639Z,16.85
2022-08-22T01:25:21.902Z,16.81
2022-08-22T01:26:20.290Z,16.78
2022-08-22T01:27:20.215Z,16.74
2022-08-22T01:28:20.200Z,16.73
2022-08-22T01:29:27.774Z,16.73
2022-08-22T01:30:20.209Z,16.71
2022-08-22T01:31:20.625Z,16.68
2022-08-22T01:32:20.223Z,16.67
2022-08-22T01:33:20.153Z,16.65
2022-08-22T01:34:20.158Z,16.65
2022-08-22T01:35:20.130Z,16.62
2022-08-22T01:36:20.105Z,16.62
2022-08-22T01:37:20.101Z,16.63
2022-08-22T01:38:20.510Z,16.63
2022-08-22T01:39:20.098Z,16.62
2022-08-22T01:40:20.154Z,16.62
2022-08-22T01:41:20.062Z,16.60
2022-08-22T01:42:20.071Z,16.60
2022-08-22T01:43:20.046Z,16.60
2022-08-22T01:44:20.046Z,16.62
2022-08-22T01:45:20.311Z,16.60
2022-08-22T01:46:20.749Z,16.60
2022-08-22T01:47:20.021Z,16.59
2022-08-22T01:48:19.995Z,16.56
2022-08-22T01:49:19.973Z,16.55
2022-08-22T01:50:19.991Z,16.53
2022-08-22T01:51:19.968Z,16.52
2022-08-22T01:52:20.357Z,16.49
2022-08-22T01:53:19.943Z,16.45
2022-08-22T01:54:19.925Z,16.42
2022-08-22T01:55:19.961Z,16.42
2022-08-22T01:56:19.933Z,16.38
2022-08-22T01:57:19.890Z,16.40
2022-08-22T01:58:19.895Z,16.35
2022-08-22T01:59:20.200Z,16.34
2022-08-22T02:00:19.858Z,16.33
2022-08-22T02:01:19.969Z,16.33
2022-08-22T02:02:19.913Z,16.27
2022-08-22T02:03:19.821Z,16.26
2022-08-22T02:04:19.819Z,16.25
2022-08-22T02:05:19.814Z,16.23
2022-08-22T02:06:20.234Z,16.22
2022-08-22T02:07:19.796Z,16.22
2022-08-22T02:08:19.838Z,16.22
2022-08-22T02:09:19.775Z,16.23
2022-08-22T02:10:19.749Z,16.25
2022-08-22T02:11:19.740Z,16.22
2022-08-22T02:12:21.832Z,16.22
2022-08-22T02:13:21.118Z,16.22
2022-08-22T02:14:19.755Z,16.23
2022-08-22T02:15:19.736Z,16.23
2022-08-22T02:16:19.689Z,16.22
2022-08-22T02:17:19.681Z,16.23
2022-08-22T02:18:19.723Z,16.23
2022-08-22T02:19:19.652Z,16.26
2022-08-22T02:20:20.341Z,16.25
2022-08-22T02:21:19.666Z,16.25
2022-08-22T02:22:19.627Z,16.25
2022-08-22T02:23:19.617Z,16.22
2022-08-22T02:24:19.626Z,16.23
2022-08-22T02:25:19.611Z,16.25
2022-08-22T02:26:19.602Z,16.23
2022-08-22T02:27:19.971Z,16.22
2022-08-22T02:28:19.561Z,16.23
2022-08-22T02:29:19.557Z,16.20
2022-08-22T02:30:19.529Z,16.16
2022-08-22T02:31:19.563Z,16.14
2022-08-22T02:32:19.538Z,16.12
2022-08-22T02:33:19.509Z,16.11
2022-08-22T02:34:19.806Z,16.09
2022-08-22T02:35:19.493Z,16.07
2022-08-22T02:36:19.469Z,16.07
2022-08-22T02:37:19.507Z,16.04
2022-08-22T02:38:19.484Z,16.03
2022-08-22T02:39:19.446Z,16.03
2022-08-22T02:40:19.554Z,16.01
2022-08-22T02:41:19.871Z,16.00
2022-08-22T02:42:19.409Z,15.97
2022-08-22T02:43:19.406Z,15.97
2022-08-22T02:44:19.446Z,15.96
2022-08-22T02:45:19.393Z,15.94
2022-08-22T02:46:19.358Z,15.93
2022-08-22T02:47:19.374Z,15.92
2022-08-22T02:48:19.820Z,15.89
2022-08-22T02:49:19.339Z,15.89
2022-08-22T02:50:19.378Z,15.88
2022-08-22T02:51:19.357Z,15.88
2022-08-22T02:52:19.301Z,15.85
2022-08-22T02:53:19.294Z,15.85
2022-08-22T02:54:19.290Z,15.85
2022-08-22T02:55:19.658Z,15.84
2022-08-22T02:56:19.285Z,15.84
2022-08-22T02:57:19.263Z,15.85
2022-08-22T02:58:19.231Z,15.84
2022-08-22T02:59:19.230Z,15.84
2022-08-22T03:00:30.959Z,15.84
2022-08-22T03:01:19.284Z,15.81
2022-08-22T03:02:19.540Z,15.82
2022-08-22T03:03:19.191Z,15.82
2022-08-22T03:04:19.192Z,15.81
2022-08-22T03:05:19.204Z,15.79
2022-08-22T03:06:19.139Z,15.79
2022-08-22T03:07:19.154Z,15.79
2022-08-22T03:08:20.087Z,15.78
2022-08-22T03:09:21.628Z,15.78
2022-08-22T03:10:19.098Z,15.78
2022-08-22T03:11:19.108Z,15.75
2022-08-22T03:12:19.092Z,15.74
2022-08-22T03:13:19.076Z,15.74
2022-08-22T03:14:19.128Z,15.70
2022-08-22T03:15:19.052Z,15.72
2022-08-22T03:16:19.385Z,15.74
2022-08-22T03:17:19.034Z,15.74
2022-08-22T03:18:19.028Z,15.72
2022-08-22T03:19:19.136Z,15.70
2022-08-22T03:20:19.064Z,15.68
2022-08-22T03:21:19.021Z,15.66
2022-08-22T03:22:18.998Z,15.67
2022-08-22T03:23:19.338Z,15.64
2022-08-22T03:24:18.951Z,15.63
2022-08-22T03:25:18.971Z,15.61
2022-08-22T03:26:19.007Z,15.60
2022-08-22T03:27:32.677Z,15.59
2022-08-22T03:28:18.949Z,15.57
2022-08-22T03:29:18.911Z,15.59
2022-08-22T03:30:19.409Z,15.56
2022-08-22T03:31:18.909Z,15.52
2022-08-22T03:32:18.893Z,15.52
2022-08-22T03:33:18.857Z,15.52
2022-08-22T03:34:18.886Z,15.52
2022-08-22T03:35:18.839Z,15.51
2022-08-22T03:36:18.835Z,15.51
2022-08-22T03:37:19.217Z,15.51
2022-08-22T03:38:18.843Z,15.51
2022-08-22T03:39:18.798Z,15.49
2022-08-22T03:40:18.833Z,15.48
2022-08-22T03:41:18.790Z,15.49
2022-08-22T03:42:18.755Z,15.46
2022-08-22T03:43:18.766Z,15.45
2022-08-22T03:44:21.157Z,15.45
2022-08-22T03:45:18.743Z,15.43
2022-08-22T03:46:18.720Z,15.42
2022-08-22T03:47:18.745Z,15.41
2022-08-22T03:48:18.693Z,15.39
2022-08-22T03:49:18.692Z,15.39
2022-08-22T03:50:18.732Z,15.38
2022-08-22T03:51:20.141Z,15.36
2022-08-22T03:52:18.659Z,15.35
2022-08-22T03:53:19.480Z,15.35
2022-08-22T03:54:18.653Z,15.33
2022-08-22T03:55:18.630Z,15.31
2022-08-22T03:56:18.661Z,15.31
2022-08-22T03:57:18.647Z,15.31
2022-08-22T03:58:27.626Z,15.30
2022-08-22T03:59:18.596Z,15.28
2022-08-22T04:00:18.610Z,15.30
2022-08-22T04:01:18.640Z,15.28
2022-08-22T04:02:35.211Z,15.26
2022-08-22T04:03:18.552Z,15.26
2022-08-22T04:04:18.547Z,15.26
2022-08-22T04:05:19.002Z,15.26
2022-08-22T04:06:18.503Z,15.26
2022-08-22T04:07:31.721Z,15.24
2022-08-22T04:08:21.085Z,15.26
2022-08-22T04:09:18.477Z,15.23
2022-08-22T04:10:18.473Z,15.24
2022-08-22T04:11:18.454Z,15.23
2022-08-22T04:12:18.843Z,15.24
2022-08-22T04:13:18.432Z,15.23
2022-08-22T04:14:18.463Z,15.23
2022-08-22T04:15:18.489Z,15.21
2022-08-22T04:16:18.439Z,15.21
2022-08-22T04:17:18.414Z,15.20
2022-08-22T04:18:18.382Z,15.19
2022-08-22T04:19:18.697Z,15.17
2022-08-22T04:20:18.417Z,15.15
2022-08-22T04:21:18.381Z,15.13
2022-08-22T04:22:18.330Z,15.13
2022-08-22T04:23:18.326Z,15.12
2022-08-22T04:24:18.322Z,15.12
2022-08-22T04:25:18.320Z,15.11
2022-08-22T04:26:18.808Z,15.11
2022-08-22T04:27:18.334Z,15.08
2022-08-22T04:28:18.272Z,15.08
2022-08-22T04:29:18.263Z,15.08
2022-08-22T04:30:18.269Z,15.08
2022-08-22T04:31:18.252Z,15.06
2022-08-22T04:32:18.255Z,15.06
2022-08-22T04:33:18.583Z,15.08
2022-08-22T04:34:18.199Z,15.09
2022-08-22T04:35:18.201Z,15.09
2022-08-22T04:36:18.186Z,15.12
2022-08-22T04:37:18.211Z,15.09
2022-08-22T04:38:18.206Z,15.09
2022-08-22T04:39:18.163Z,15.12
2022-08-22T04:40:18.203Z,15.09
2022-08-22T04:41:18.156Z,15.09
2022-08-22T04:42:32.357Z,15.11
2022-08-22T04:43:18.125Z,15.12
2022-08-22T04:44:18.130Z,15.12
2022-08-22T04:45:18.480Z,15.11
2022-08-22T04:46:18.080Z,15.09
2022-08-22T04:47:18.104Z,15.09
2022-08-22T04:48:18.054Z,15.06
2022-08-22T04:49:18.054Z,15.06
2022-08-22T04:50:18.090Z,15.06
2022-08-22T04:51:18.029Z,15.06
2022-08-22T04:52:18.016Z,15.06
2022-08-22T04:53:18.015Z,15.06
2022-08-22T04:54:17.991Z,15.08
2022-08-22T04:55:17.988Z,15.09
2022-08-22T04:56:18.014Z,15.09
2022-08-22T04:57:18.327Z,15.12
2022-08-22T04:58:17.959Z,15.12
2022-08-22T04:59:17.949Z,15.13
2022-08-22T05:00:17.976Z,15.13
2022-08-22T05:01:17.972Z,15.15
2022-08-22T05:02:17.930Z,15.17
2022-08-22T05:03:17.895Z,15.20
2022-08-22T05:04:18.367Z,15.19
2022-08-22T05:05:17.912Z,15.21
2022-08-22T05:06:17.872Z,15.23
2022-08-22T05:07:17.849Z,15.26
2022-08-22T05:08:17.876Z,15.27
2022-08-22T05:09:17.853Z,15.30
2022-08-22T05:10:17.823Z,15.35
2022-08-22T05:11:18.231Z,15.38
2022-08-22T05:12:17.818Z,15.41
2022-08-22T05:13:17.814Z,15.39
2022-08-22T05:14:17.821Z,15.43
2022-08-22T05:15:22.912Z,15.46
2022-08-22T05:16:17.783Z,15.46
2022-08-22T05:17:17.741Z,15.51
2022-08-22T05:18:18.074Z,15.52
2022-08-22T05:19:22.986Z,15.56
2022-08-22T05:20:17.770Z,15.59
2022-08-22T05:21:17.745Z,15.61
2022-08-22T05:22:17.692Z,15.61
2022-08-22T05:23:17.912Z,15.66
2022-08-22T05:24:17.683Z,15.67
2022-08-22T05:25:19.136Z,15.70
2022-08-22T05:26:17.700Z,15.72
2022-08-22T05:27:17.634Z,15.75
2022-08-22T05:28:17.620Z,15.78
2022-08-22T05:29:17.632Z,15.79
2022-08-22T05:30:17.612Z,15.85
2022-08-22T05:31:17.596Z,15.88
2022-08-22T05:32:17.609Z,15.93
2022-08-22T05:33:17.591Z,15.96
2022-08-22T05:34:17.564Z,15.99
2022-08-22T05:35:17.559Z,16.01
2022-08-22T05:36:17.549Z,16.07
2022-08-22T05:37:17.530Z,16.11
2022-08-22T05:38:17.911Z,16.15
2022-08-22T05:39:17.529Z,16.18
2022-08-22T05:40:17.540Z,16.25
2022-08-22T05:41:17.489Z,16.30
2022-08-22T05:42:17.481Z,16.34
2022-08-22T05:43:17.469Z,16.40
2022-08-22T05:44:17.484Z,16.45
2022-08-22T05:45:17.849Z,16.56
2022-08-22T05:46:17.444Z,16.67
2022-08-22T05:47:17.421Z,16.77
2022-08-22T05:48:17.407Z,16.88
2022-08-22T05:49:17.399Z,16.96
2022-08-22T05:50:17.431Z,17.07
2022-08-22T05:51:17.373Z,17.15
2022-08-22T05:52:17.681Z,17.23
2022-08-22T05:53:17.366Z,17.29
2022-08-22T05:54:17.361Z,17.38
2022-08-22T05:55:17.361Z,17.43
2022-08-22T05:56:17.370Z,17.47
2022-08-22T05:57:17.306Z,17.54
2022-08-22T05:58:17.326Z,17.59
2022-08-22T05:59:17.723Z,17.76
2022-08-22T06:00:17.284Z,18.03
2022-08-22T06:01:17.304Z,18.34
2022-08-22T06:02:17.343Z,18.43
2022-08-22T06:03:17.261Z,18.58
2022-08-22T06:04:17.245Z,18.86
2022-08-22T06:05:17.240Z,19.13
2022-08-22T06:06:17.570Z,19.33
2022-08-22T06:07:17.214Z,19.58
2022-08-22T06:08:17.235Z,19.66
2022-08-22T06:09:17.205Z,19.87
2022-08-22T06:10:17.178Z,20.09
2022-08-22T06:11:17.174Z,20.27
2022-08-22T06:12:21.679Z,20.47
2022-08-22T06:13:17.150Z,20.56
2022-08-22T06:14:17.169Z,20.39
2022-08-22T06:15:21.108Z,20.34
2022-08-22T06:16:17.122Z,20.24
2022-08-22T06:17:17.096Z,20.23
2022-08-22T06:18:17.131Z,20.25
2022-08-22T06:19:19.211Z,20.41
2022-08-22T06:20:17.108Z,20.59
2022-08-22T06:21:17.062Z,20.74
2022-08-22T06:22:18.642Z,20.87
2022-08-22T06:23:17.036Z,21.02
2022-08-22T06:24:17.113Z,21.08
2022-08-22T06:25:17.025Z,21.02
2022-08-22T06:26:20.634Z,21.01
2022-08-22T06:27:17.015Z,21.19
2022-08-22T06:28:16.994Z,21.24
2022-08-22T06:29:16.981Z,21.21
2022-08-22T06:30:16.964Z,21.32
2022-08-22T06:31:16.980Z,21.42
2022-08-22T06:32:16.983Z,21.51
2022-08-22T06:33:16.938Z,21.63
2022-08-22T06:34:16.924Z,21.61
2022-08-22T06:35:16.922Z,21.71
2022-08-22T06:36:16.908Z,21.51
2022-08-22T06:37:16.893Z,21.69
2022-08-22T06:38:16.933Z,21.79
2022-08-22T06:39:17.199Z,21.78
2022-08-22T06:40:16.941Z,21.53
2022-08-22T06:41:16.869Z,21.35
2022-08-22T06:42:17.243Z,21.11
2022-08-22T06:43:16.849Z,20.86
2022-08-22T06:44:16.849Z,20.74
2022-08-22T06:45:16.818Z,20.62
2022-08-22T06:46:16.803Z,20.46
2022-08-22T06:47:16.785Z,20.31
2022-08-22T06:48:16.794Z,20.18
2022-08-22T06:49:16.775Z,20.08
2022-08-22T06:50:16.797Z,19.97
2022-08-22T06:51:17.044Z,19.91
2022-08-22T06:52:16.744Z,19.87
2022-08-22T06:53:16.733Z,19.88
2022-08-22T06:54:16.730Z,19.88
2022-08-22T06:55:16.705Z,19.93
2022-08-22T06:56:16.733Z,20.03
2022-08-22T06:57:16.683Z,20.15
2022-08-22T06:58:17.096Z,20.25
2022-08-22T06:59:16.663Z,20.34
2022-08-22T07:00:16.663Z,20.28
2022-08-22T07:01:16.730Z,20.24
2022-08-22T07:02:16.678Z,20.15
2022-08-22T07:03:16.616Z,20.12
2022-08-22T07:04:16.619Z,20.10
2022-08-22T07:05:16.938Z,20.03
2022-08-22T07:06:16.621Z,20.20
2022-08-22T07:07:16.580Z,20.33
2022-08-22T07:08:16.625Z,20.56
2022-08-22T07:09:16.559Z,20.71
2022-08-22T07:10:16.563Z,20.77
2022-08-22T07:11:16.550Z,20.98
2022-08-22T07:12:16.989Z,21.27
2022-08-22T07:13:16.517Z,21.51
2022-08-22T07:14:16.535Z,21.67
2022-08-22T07:15:16.504Z,21.95
2022-08-22T07:16:16.483Z,22.28
2022-08-22T07:17:16.495Z,22.59
2022-08-22T07:18:16.489Z,22.74
2022-08-22T07:19:16.776Z,22.75
2022-08-22T07:20:16.488Z,22.80
2022-08-22T07:21:16.449Z,22.71
2022-08-22T07:22:16.439Z,22.78
2022-08-22T07:23:16.416Z,23.01
2022-08-22T07:24:16.464Z,23.26
2022-08-22T07:25:16.406Z,23.26
2022-08-22T07:26:16.874Z,23.31
2022-08-22T07:27:16.383Z,23.20
2022-08-22T07:28:16.450Z,23.02
2022-08-22T07:29:17.010Z,22.87
2022-08-22T07:30:16.376Z,22.67
2022-08-22T07:31:16.342Z,22.43
2022-08-22T07:32:16.374Z,22.28
2022-08-22T07:33:25.855Z,22.12
2022-08-22T07:34:16.326Z,21.95
2022-08-22T07:35:16.283Z,21.88
2022-08-22T07:36:16.309Z,21.61
2022-08-22T07:37:16.308Z,21.64
2022-08-22T07:38:16.327Z,21.75
2022-08-22T07:39:16.257Z,21.85
2022-08-22T07:40:17.813Z,22.12
2022-08-22T07:41:16.249Z,22.43
2022-08-22T07:42:16.230Z,22.49
2022-08-22T07:43:16.217Z,22.57
2022-08-22T07:44:16.267Z,22.57
2022-08-22T07:45:16.198Z,22.72
2022-08-22T07:46:16.206Z,22.83
2022-08-22T07:47:18.033Z,22.77
2022-08-22T07:48:25.026Z,22.68
2022-08-22T07:49:16.158Z,22.69
2022-08-22T07:50:16.205Z,22.59
2022-08-22T07:51:16.133Z,22.65
2022-08-22T07:52:16.126Z,22.68
2022-08-22T07:53:16.108Z,22.67
2022-08-22T07:54:16.112Z,22.64
2022-08-22T07:55:16.096Z,22.60
2022-08-22T07:56:16.132Z,22.53
2022-08-22T07:57:16.063Z,22.49
2022-08-22T07:58:16.067Z,22.52
2022-08-22T07:59:16.058Z,22.47
2022-08-22T08:00:16.419Z,22.35
2022-08-22T08:01:16.102Z,22.41
2022-08-22T08:02:16.073Z,22.44
2022-08-22T08:03:16.032Z,22.47
2022-08-22T08:04:16.019Z,22.47
2022-08-22T08:05:15.994Z,22.44
2022-08-22T08:06:15.994Z,22.49
2022-08-22T08:07:16.453Z,22.56
2022-08-22T08:08:16.002Z,22.53
2022-08-22T08:09:15.948Z,22.57
2022-08-22T08:10:16.000Z,22.67
2022-08-22T08:11:15.927Z,22.62
2022-08-22T08:12:15.920Z,22.64
2022-08-22T08:13:15.908Z,22.65
2022-08-22T08:14:16.355Z,22.74
2022-08-22T08:15:15.884Z,22.83
2022-08-22T08:16:15.892Z,22.90
2022-08-22T08:17:15.878Z,22.96
2022-08-22T08:18:15.855Z,22.94
2022-08-22T08:19:15.861Z,22.99
2022-08-22T08:20:15.899Z,23.02
2022-08-22T08:21:16.170Z,23.09
2022-08-22T08:22:15.810Z,23.19
2022-08-22T08:23:15.813Z,23.23
2022-08-22T08:24:15.833Z,23.29
2022-08-22T08:25:15.772Z,23.26
2022-08-22T08:26:15.819Z,23.29
2022-08-22T08:27:15.785Z,23.39
2022-08-22T08:28:16.202Z,23.35
2022-08-22T08:29:15.734Z,23.47
2022-08-22T08:30:15.820Z,23.60
2022-08-22T08:31:15.716Z,23.49
2022-08-22T08:32:15.746Z,23.49
2022-08-22T08:33:26.245Z,23.52
2022-08-22T08:34:15.701Z,23.60
2022-08-22T08:35:16.026Z,23.72
2022-08-22T08:36:15.662Z,23.87
2022-08-22T08:37:15.649Z,24.17
2022-08-22T08:38:15.689Z,24.41
2022-08-22T08:39:15.632Z,24.69
2022-08-22T08:40:15.695Z,24.79
2022-08-22T08:41:18.659Z,24.82
2022-08-22T08:42:15.599Z,24.88
2022-08-22T08:43:15.598Z,24.92
2022-08-22T08:44:15.602Z,24.95
2022-08-22T08:45:15.557Z,24.80
2022-08-22T08:46:15.590Z,24.75
2022-08-22T08:47:15.533Z,24.83
2022-08-22T08:48:15.937Z,24.92
2022-08-22T08:49:15.538Z,25.01
2022-08-22T08:50:15.557Z,24.90
2022-08-22T08:51:15.507Z,24.76
2022-08-22T08:52:15.593Z,24.68
2022-08-22T08:53:15.479Z,24.87
2022-08-22T08:54:15.473Z,25.15
2022-08-22T08:55:16.078Z,25.44
2022-08-22T08:56:19.461Z,25.68
2022-08-22T08:57:15.452Z,25.89
2022-08-22T08:58:15.441Z,25.99
2022-08-22T08:59:15.426Z,26.11
2022-08-22T09:00:15.408Z,26.27
2022-08-22T09:01:15.446Z,26.39
2022-08-22T09:40:29.961Z,26.58
2022-08-22T09:40:34.982Z,27.95
2022-08-22T09:41:34.931Z,28.06
2022-08-22T09:42:35.362Z,28.07
2022-08-22T09:43:34.899Z,28.09
2022-08-22T09:44:34.872Z,28.11
2022-08-22T09:45:34.886Z,27.96
2022-08-22T09:46:36.985Z,27.79
2022-08-22T09:47:34.855Z,27.73
2022-08-22T09:48:34.866Z,27.71
2022-08-22T09:49:34.838Z,27.70
2022-08-22T09:50:34.832Z,27.74
2022-08-22T09:51:34.853Z,27.79
2022-08-22T09:52:36.695Z,27.79
2022-08-22T09:53:34.794Z,27.84
2022-08-22T09:54:35.195Z,27.70
2022-08-22T09:55:35.429Z,27.66
2022-08-22T09:56:34.758Z,27.67
2022-08-22T09:57:34.797Z,27.74
2022-08-22T09:58:38.870Z,27.84
2022-08-22T09:59:34.749Z,27.94
2022-08-22T10:00:34.743Z,27.86
2022-08-22T10:01:35.070Z,27.82
2022-08-22T10:02:34.822Z,27.82
2022-08-22T10:03:34.724Z,27.82
2022-08-22T10:04:34.678Z,27.82
2022-08-22T10:05:38.485Z,27.91
2022-08-22T10:06:34.688Z,28.01
2022-08-22T10:07:34.649Z,28.11
2022-08-22T10:08:35.085Z,28.21
2022-08-22T10:09:34.674Z,28.35
2022-08-22T10:10:34.616Z,28.25
2022-08-22T10:11:34.605Z,28.10
2022-08-22T10:12:36.208Z,27.82
2022-08-22T10:13:34.587Z,27.70
2022-08-22T10:14:34.569Z,27.64
2022-08-22T10:15:34.984Z,27.62
2022-08-22T10:16:34.562Z,27.74
2022-08-22T10:17:34.538Z,27.80
2022-08-22T10:18:34.540Z,27.94
2022-08-22T10:19:34.517Z,27.86
2022-08-22T10:20:34.514Z,27.85
2022-08-22T10:21:34.540Z,28.07
2022-08-22T10:22:34.971Z,28.35
2022-08-22T10:23:34.480Z,28.53
2022-08-22T10:24:36.067Z,28.65
2022-08-22T10:25:34.472Z,28.85
2022-08-22T10:26:38.526Z,29.07
2022-08-22T10:27:34.504Z,29.15
2022-08-22T10:28:34.437Z,29.23
2022-08-22T10:29:34.815Z,29.47
2022-08-22T10:30:34.430Z,29.29
2022-08-22T10:31:34.428Z,29.44
2022-08-22T10:32:34.399Z,29.38
2022-08-22T10:33:34.419Z,29.29
2022-08-22T10:34:34.387Z,29.43
2022-08-22T10:35:34.459Z,29.60
2022-08-22T10:36:34.650Z,29.56
2022-08-22T10:37:34.351Z,29.49
2022-08-22T10:38:34.373Z,29.81
2022-08-22T10:39:34.382Z,29.97
2022-08-22T10:40:34.312Z,29.78
2022-08-22T10:41:34.310Z,29.87
2022-08-22T10:42:35.658Z,29.75
2022-08-22T10:43:34.742Z,29.70
2022-08-22T10:44:34.271Z,30.00
2022-08-22T10:45:36.363Z,30.12
2022-08-22T10:46:34.263Z,30.08
2022-08-22T10:47:34.245Z,29.99
2022-08-22T10:48:34.235Z,30.02
2022-08-22T10:49:34.253Z,30.12
2022-08-22T10:50:34.571Z,30.33
2022-08-22T10:51:34.249Z,30.45
2022-08-22T10:52:34.221Z,30.31
2022-08-22T10:53:34.756Z,30.30
2022-08-22T10:54:34.227Z,30.31
2022-08-22T10:55:34.173Z,30.57
2022-08-22T10:56:34.148Z,30.80
2022-08-22T10:57:34.656Z,30.96
2022-08-22T10:58:34.123Z,31.08
2022-08-22T10:59:34.152Z,31.02
2022-08-22T11:00:34.158Z,30.86
2022-08-22T11:01:37.793Z,30.80
2022-08-22T11:02:34.101Z,30.24
2022-08-22T11:03:34.203Z,29.87
2022-08-22T11:04:34.076Z,29.93
2022-08-22T11:05:34.080Z,30.09
2022-08-22T11:06:34.056Z,30.31
2022-08-22T11:07:34.070Z,30.31
2022-08-22T11:08:34.881Z,30.36
2022-08-22T11:09:36.979Z,30.34
2022-08-22T11:10:34.937Z,30.38
2022-08-22T11:11:34.016Z,30.46
2022-08-22T11:12:35.156Z,30.61
2022-08-22T11:13:34.100Z,30.71
2022-08-22T11:14:33.977Z,30.81
2022-08-22T11:15:34.928Z,31.01
2022-08-22T11:16:36.757Z,31.21
2022-08-22T11:17:39.751Z,31.40
2022-08-22T11:18:33.955Z,31.61
2022-08-22T11:19:33.970Z,31.57
2022-08-22T11:20:33.925Z,31.55
2022-08-22T11:21:33.960Z,31.60
2022-08-22T11:22:33.912Z,31.72
2022-08-22T11:23:34.203Z,31.68
2022-08-22T11:24:35.647Z,31.68
2022-08-22T11:25:38.642Z,31.67
2022-08-22T11:26:46.564Z,31.54
2022-08-22T11:27:37.953Z,31.48
2022-08-22T11:28:33.865Z,31.64
2022-08-22T11:29:33.839Z,31.95
2022-08-22T11:30:36.562Z,32.25
2022-08-22T11:31:36.715Z,32.44
2022-08-22T11:32:33.820Z,32.57
2022-08-22T11:33:46.655Z,32.79
2022-08-22T11:34:33.794Z,32.77
2022-08-22T11:35:33.787Z,32.86
2022-08-22T11:36:33.769Z,33.08
2022-08-22T11:37:42.228Z,33.31
2022-08-22T11:38:33.751Z,33.31
2022-08-22T11:39:33.776Z,33.37
2022-08-22T11:40:33.742Z,33.49
2022-08-22T11:41:33.723Z,33.58
2022-08-22T11:42:33.734Z,33.58
2022-08-22T11:43:33.718Z,33.39
2022-08-22T11:44:34.774Z,32.99
2022-08-22T11:45:33.763Z,32.30
2022-08-22T11:46:33.673Z,32.27
2022-08-22T11:47:33.661Z,32.51
2022-08-22T11:48:33.649Z,32.58
2022-08-22T11:49:33.656Z,32.17
2022-08-22T11:50:33.635Z,32.17
2022-08-22T11:51:34.324Z,32.39
2022-08-22T11:52:33.643Z,32.80
2022-08-22T11:53:33.610Z,32.89
2022-08-22T11:54:33.579Z,32.88
2022-08-22T11:55:34.618Z,33.11
2022-08-22T11:56:33.575Z,33.06
2022-08-22T11:57:33.591Z,32.73
2022-08-22T11:58:33.990Z,32.98
2022-08-22T11:59:33.555Z,33.20
2022-08-22T12:00:33.529Z,33.39
2022-08-22T12:01:34.316Z,33.17
2022-08-22T12:02:33.528Z,33.14
2022-08-22T12:03:33.535Z,33.49
2022-08-22T12:04:33.499Z,33.95
2022-08-22T12:05:33.854Z,33.73
2022-08-22T12:06:34.620Z,32.99
2022-08-22T12:07:33.473Z,32.24
2022-08-22T12:08:33.492Z,31.80
2022-08-22T12:09:33.831Z,31.65
2022-08-22T12:10:33.422Z,31.54
2022-08-22T12:11:33.441Z,31.27
2022-08-22T12:12:33.882Z,30.99
2022-08-22T12:13:34.832Z,30.62
2022-08-22T12:14:33.401Z,30.37
2022-08-22T12:15:33.599Z,30.62
2022-08-22T12:16:33.373Z,30.98
2022-08-22T12:17:54.920Z,31.24
2022-08-22T12:18:33.708Z,31.58
2022-08-22T12:19:33.347Z,32.15
2022-08-22T12:20:33.338Z,32.10
2022-08-22T12:21:33.353Z,31.64
2022-08-22T12:22:33.316Z,31.53
2022-08-22T12:23:49.476Z,31.65
2022-08-22T12:24:33.293Z,31.80
2022-08-22T12:25:33.281Z,31.79
2022-08-22T12:26:33.271Z,31.60
2022-08-22T12:27:33.321Z,31.48
2022-08-22T12:28:33.262Z,31.54
2022-08-22T12:29:33.994Z,31.53
2022-08-22T12:30:33.238Z,31.72
2022-08-22T12:31:33.217Z,31.73
2022-08-22T12:32:33.219Z,31.87
2022-08-22T12:33:33.244Z,31.77
2022-08-22T12:34:33.197Z,32.00
2022-08-22T12:35:33.197Z,32.39
2022-08-22T12:36:33.622Z,32.51
2022-08-22T12:37:35.703Z,32.43
2022-08-22T12:38:37.415Z,32.59
2022-08-22T12:39:33.174Z,32.69
2022-08-22T12:40:33.205Z,32.59
2022-08-22T12:41:34.728Z,33.01
2022-08-22T12:42:33.135Z,33.60
2022-08-22T12:43:33.737Z,33.94
2022-08-22T12:44:33.101Z,34.05
2022-08-22T12:45:33.157Z,33.53
2022-08-22T12:46:33.101Z,32.86
2022-08-22T12:47:34.427Z,32.58
2022-08-22T12:48:33.045Z,32.49
2022-08-22T12:49:33.040Z,32.29
2022-08-22T12:50:33.520Z,32.27
2022-08-22T12:51:33.130Z,32.61
2022-08-22T12:52:33.145Z,32.49
2022-08-22T12:53:33.024Z,32.35
2022-08-22T12:54:33.008Z,32.22
2022-08-22T12:55:32.991Z,32.07
2022-08-22T12:56:32.967Z,31.87
2022-08-22T12:57:33.425Z,31.76
2022-08-22T12:58:33.686Z,32.22
2022-08-22T12:59:32.967Z,32.47
2022-08-22T13:00:33.001Z,32.25
2022-08-22T13:01:34.115Z,32.52
2022-08-22T13:02:32.969Z,32.76
2022-08-22T13:03:32.945Z,33.19
2022-08-22T13:04:34.245Z,33.61
2022-08-22T13:05:34.297Z,33.80
2022-08-22T13:06:32.889Z,34.14
2022-08-22T13:07:32.906Z,33.65
2022-08-22T13:08:32.850Z,33.83
2022-08-22T13:09:32.945Z,33.74
2022-08-22T13:10:32.835Z,33.10
2022-08-22T13:11:33.274Z,32.74
2022-08-22T13:12:32.816Z,31.82
2022-08-22T13:13:37.213Z,31.30
2022-08-22T13:14:32.795Z,31.13
2022-08-22T13:15:32.824Z,31.08
2022-08-22T13:16:32.782Z,30.89
2022-08-22T13:17:32.787Z,30.56
2022-08-22T13:18:33.368Z,30.47
2022-08-22T13:19:33.164Z,30.24
2022-08-22T13:20:32.761Z,30.14
2022-08-22T13:21:36.063Z,30.14
2022-08-22T13:22:32.711Z,30.21
2022-08-22T13:23:32.720Z,30.19
2022-08-22T13:24:38.691Z,30.18
2022-08-22T13:25:32.697Z,30.27
2022-08-22T13:26:34.098Z,30.31
2022-08-22T13:27:32.751Z,30.36
2022-08-22T13:28:32.665Z,30.38
2022-08-22T13:29:39.362Z,30.14
2022-08-22T13:30:32.673Z,29.81
2022-08-22T13:31:32.998Z,29.65